sensor_id;sensor_type;location;lat;lon;timestamp;pressure;altitude;pressure_sealevel;temperature;humidity
33913;BME280;20200;52.084;5.224;2023-04-04T00:01:31;151832.0;;;12.17;34.86
33913;BME280;20200;52.084;5.224;2023-04-04T00:03:07;151801.0;;;12.05;35.04
33913;BME280;20200;52.084;5.224;2023-04-04T00:06:20;151793.0;;;12.01;35.1
33913;BME280;20200;52.084;5.224;2023-04-04T00:07:56;151787.0;;;11.99;35.19
33913;BME280;20200;52.084;5.224;2023-04-04T00:09:32;151718.0;;;11.72;35.44
33913;BME280;20200;52.084;5.224;2023-04-04T00:11:08;151777.0;;;11.95;34.92
33913;BME280;20200;52.084;5.224;2023-04-04T00:14:21;151776.0;;;11.94;35.03
33913;BME280;20200;52.084;5.224;2023-04-04T00:15:57;151707.0;;;11.67;35.65
33913;BME280;20200;52.084;5.224;2023-04-04T00:17:33;151664.0;;;11.5;36.01
33913;BME280;20200;52.084;5.224;2023-04-04T00:20:45;151628.0;;;11.35;36.14
33913;BME280;20200;52.084;5.224;2023-04-04T00:22:21;151651.0;;;11.45;35.62
33913;BME280;20200;52.084;5.224;2023-04-04T00:23:57;151678.0;;;11.56;35.87
33913;BME280;20200;52.084;5.224;2023-04-04T00:27:10;151708.0;;;11.67;35.26
33913;BME280;20200;52.084;5.224;2023-04-04T00:28:46;151572.0;;;11.13;36.06
33913;BME280;20200;52.084;5.224;2023-04-04T00:30:22;151660.0;;;11.48;35.99
33913;BME280;20200;52.084;5.224;2023-04-04T00:33:34;151678.0;;;11.55;35.64
33913;BME280;20200;52.084;5.224;2023-04-04T00:35:11;151623.0;;;11.33;35.99
33913;BME280;20200;52.084;5.224;2023-04-04T00:36:47;151636.0;;;11.39;35.42
33913;BME280;20200;52.084;5.224;2023-04-04T00:38:23;151686.0;;;11.59;35.43
33913;BME280;20200;52.084;5.224;2023-04-04T00:41:35;151732.0;;;11.77;34.87
33913;BME280;20200;52.084;5.224;2023-04-04T00:43:11;151682.0;;;11.57;35.49
33913;BME280;20200;52.084;5.224;2023-04-04T00:44:50;151685.0;;;11.58;35.22
33913;BME280;20200;52.084;5.224;2023-04-04T00:48:03;151581.0;;;11.17;36.03
33913;BME280;20200;52.084;5.224;2023-04-04T00:49:39;151560.0;;;11.08;36.06
33913;BME280;20200;52.084;5.224;2023-04-04T00:51:15;151490.0;;;10.8;36.87
33913;BME280;20200;52.084;5.224;2023-04-04T00:54:28;151468.0;;;10.72;37.14
33913;BME280;20200;52.084;5.224;2023-04-04T00:56:07;151491.0;;;10.81;37.0
33913;BME280;20200;52.084;5.224;2023-04-04T00:57:44;151450.0;;;10.64;36.99
33913;BME280;20200;52.084;5.224;2023-04-04T00:59:21;151442.0;;;10.61;37.17
33913;BME280;20200;52.084;5.224;2023-04-04T01:02:35;151482.0;;;10.77;36.96
33913;BME280;20200;52.084;5.224;2023-04-04T01:04:11;151466.0;;;10.71;37.18
33913;BME280;20200;52.084;5.224;2023-04-04T01:05:47;151490.0;;;10.8;36.89
33913;BME280;20200;52.084;5.224;2023-04-04T01:09:01;151480.0;;;10.76;37.0
33913;BME280;20200;52.084;5.224;2023-04-04T01:10:38;151452.0;;;10.65;37.35
33913;BME280;20200;52.084;5.224;2023-04-04T01:12:15;151417.0;;;10.51;37.49
33913;BME280;20200;52.084;5.224;2023-04-04T01:13:51;151442.0;;;10.61;37.33
33913;BME280;20200;52.084;5.224;2023-04-04T01:17:04;151467.0;;;10.71;37.12
33913;BME280;20200;52.084;5.224;2023-04-04T01:18:41;151415.0;;;10.5;37.36
33913;BME280;20200;52.084;5.224;2023-04-04T01:20:22;151350.0;;;10.25;37.99
33913;BME280;20200;52.084;5.224;2023-04-04T01:23:46;151401.0;;;10.45;37.51
33913;BME280;20200;52.084;5.224;2023-04-04T01:25:34;151404.0;;;10.46;37.58
33913;BME280;20200;52.084;5.224;2023-04-04T01:27:10;151438.0;;;10.6;37.53
33913;BME280;20200;52.084;5.224;2023-04-04T01:28:47;151399.0;;;10.44;37.33
33913;BME280;20200;52.084;5.224;2023-04-04T01:32:07;151419.0;;;10.52;37.49
33913;BME280;20200;52.084;5.224;2023-04-04T01:33:53;151443.0;;;10.62;37.56
33913;BME280;20200;52.084;5.224;2023-04-04T01:35:39;151435.0;;;10.58;37.32
33913;BME280;20200;52.084;5.224;2023-04-04T01:37:26;151442.0;;;10.61;37.33
33913;BME280;20200;52.084;5.224;2023-04-04T01:39:12;151432.0;;;10.57;37.65
33913;BME280;20200;52.084;5.224;2023-04-04T01:42:37;151236.0;;;9.8;38.49
33913;BME280;20200;52.084;5.224;2023-04-04T01:44:15;151392.0;;;10.42;37.94
33913;BME280;20200;52.084;5.224;2023-04-04T01:45:52;151408.0;;;10.48;37.85
33913;BME280;20200;52.084;5.224;2023-04-04T01:47:28;151479.0;;;10.76;37.28
33913;BME280;20200;52.084;5.224;2023-04-04T01:50:39;151456.0;;;10.67;37.33
33913;BME280;20200;52.084;5.224;2023-04-04T01:52:15;151371.0;;;10.33;37.94
33913;BME280;20200;52.084;5.224;2023-04-04T01:53:52;151387.0;;;10.39;37.99
33913;BME280;20200;52.084;5.224;2023-04-04T01:57:04;151405.0;;;10.46;37.96
33913;BME280;20200;52.084;5.224;2023-04-04T01:58:40;151342.0;;;10.22;38.39
33913;BME280;20200;52.084;5.224;2023-04-04T02:00:16;151421.0;;;10.53;37.69
33913;BME280;20200;52.084;5.224;2023-04-04T02:03:28;151435.0;;;10.59;37.51
33913;BME280;20200;52.084;5.224;2023-04-04T02:05:05;151373.0;;;10.34;38.28
33913;BME280;20200;52.084;5.224;2023-04-04T02:06:42;151380.0;;;10.37;38.21
33913;BME280;20200;52.084;5.224;2023-04-04T02:08:18;151437.0;;;10.59;37.81
33913;BME280;20200;52.084;5.224;2023-04-04T02:11:30;151418.0;;;10.52;38.08
33913;BME280;20200;52.084;5.224;2023-04-04T02:13:06;151429.0;;;10.56;37.92
33913;BME280;20200;52.084;5.224;2023-04-04T02:14:42;151461.0;;;10.69;37.64
33913;BME280;20200;52.084;5.224;2023-04-04T02:17:55;151389.0;;;10.4;38.03
33913;BME280;20200;52.084;5.224;2023-04-04T02:19:31;151361.0;;;10.29;38.43
33913;BME280;20200;52.084;5.224;2023-04-04T02:21:07;151435.0;;;10.58;37.87
33913;BME280;20200;52.084;5.224;2023-04-04T02:24:25;151459.0;;;10.68;37.56
33913;BME280;20200;52.084;5.224;2023-04-04T02:26:01;151412.0;;;10.49;37.89
33913;BME280;20200;52.084;5.224;2023-04-04T02:27:37;151400.0;;;10.45;37.99
33913;BME280;20200;52.084;5.224;2023-04-04T02:29:14;151368.0;;;10.32;38.28
33913;BME280;20200;52.084;5.224;2023-04-04T02:32:26;151370.0;;;10.33;38.49
33913;BME280;20200;52.084;5.224;2023-04-04T02:34:02;151343.0;;;10.23;38.65
33913;BME280;20200;52.084;5.224;2023-04-04T02:35:39;151347.0;;;10.23;38.39
33913;BME280;20200;52.084;5.224;2023-04-04T02:38:51;151353.0;;;10.26;38.35
33913;BME280;20200;52.084;5.224;2023-04-04T02:40:27;151344.0;;;10.23;38.68
33913;BME280;20200;52.084;5.224;2023-04-04T02:42:03;151373.0;;;10.34;38.54
33913;BME280;20200;52.084;5.224;2023-04-04T02:45:15;151327.0;;;10.15;38.79
33913;BME280;20200;52.084;5.224;2023-04-04T02:46:52;151339.0;;;10.21;38.67
33913;BME280;20200;52.084;5.224;2023-04-04T02:48:28;151343.0;;;10.23;38.74
33913;BME280;20200;52.084;5.224;2023-04-04T02:51:41;151309.0;;;10.08;39.01
33913;BME280;20200;52.084;5.224;2023-04-04T02:53:17;151287.0;;;9.99;39.19
33913;BME280;20200;52.084;5.224;2023-04-04T02:54:53;151290.0;;;10.01;39.17
33913;BME280;20200;52.084;5.224;2023-04-04T02:56:29;151299.0;;;10.05;39.14
33913;BME280;20200;52.084;5.224;2023-04-04T02:59:42;151352.0;;;10.26;38.83
33913;BME280;20200;52.084;5.224;2023-04-04T03:01:18;151363.0;;;10.3;38.81
33913;BME280;20200;52.084;5.224;2023-04-04T03:02:54;151352.0;;;10.26;38.81
33913;BME280;20200;52.084;5.224;2023-04-04T03:06:07;151288.0;;;10.0;39.24
33913;BME280;20200;52.084;5.224;2023-04-04T03:07:43;151300.0;;;10.06;39.17
33913;BME280;20200;52.084;5.224;2023-04-04T03:09:19;151343.0;;;10.23;38.69
33913;BME280;20200;52.084;5.224;2023-04-04T03:12:32;151314.0;;;10.1;39.21
33913;BME280;20200;52.084;5.224;2023-04-04T03:14:08;151388.0;;;10.4;38.33
33913;BME280;20200;52.084;5.224;2023-04-04T03:15:44;151369.0;;;10.32;38.46
33913;BME280;20200;52.084;5.224;2023-04-04T03:17:20;151402.0;;;10.45;38.08
33913;BME280;20200;52.084;5.224;2023-04-04T03:20:33;151327.0;;;10.15;38.53
33913;BME280;20200;52.084;5.224;2023-04-04T03:22:09;151354.0;;;10.26;38.6
33913;BME280;20200;52.084;5.224;2023-04-04T03:23:45;151367.0;;;10.31;38.39
33913;BME280;20200;52.084;5.224;2023-04-04T03:26:58;151356.0;;;10.27;38.43
33913;BME280;20200;52.084;5.224;2023-04-04T03:28:34;151438.0;;;10.6;37.81
33913;BME280;20200;52.084;5.224;2023-04-04T03:30:11;151373.0;;;10.34;38.26
33913;BME280;20200;52.084;5.224;2023-04-04T03:33:24;151361.0;;;10.29;38.28
33913;BME280;20200;52.084;5.224;2023-04-04T03:35:00;151358.0;;;10.28;38.49
33913;BME280;20200;52.084;5.224;2023-04-04T03:36:36;151286.0;;;9.99;38.81
33913;BME280;20200;52.084;5.224;2023-04-04T03:38:12;151253.0;;;9.86;38.99
33913;BME280;20200;52.084;5.224;2023-04-04T03:41:24;151275.0;;;9.96;39.04
33913;BME280;20200;52.084;5.224;2023-04-04T03:43:01;151315.0;;;10.11;38.72
33913;BME280;20200;52.084;5.224;2023-04-04T03:44:39;151308.0;;;10.08;38.92
33913;BME280;20200;52.084;5.224;2023-04-04T03:47:51;151267.0;;;9.92;39.12
33913;BME280;20200;52.084;5.224;2023-04-04T03:51:03;151312.0;;;10.09;38.61
33913;BME280;20200;52.084;5.224;2023-04-04T03:54:15;151327.0;;;10.15;38.53
33913;BME280;20200;52.084;5.224;2023-04-04T03:55:54;151309.0;;;10.08;38.74
33913;BME280;20200;52.084;5.224;2023-04-04T03:57:31;151232.0;;;9.78;39.26
33913;BME280;20200;52.084;5.224;2023-04-04T03:59:07;151301.0;;;10.06;38.87
33913;BME280;20200;52.084;5.224;2023-04-04T04:02:19;151284.0;;;9.98;38.85
33913;BME280;20200;52.084;5.224;2023-04-04T04:03:55;151169.0;;;9.52;39.69
33913;BME280;20200;52.084;5.224;2023-04-04T04:05:31;151231.0;;;9.77;39.28
33913;BME280;20200;52.084;5.224;2023-04-04T04:08:44;151236.0;;;9.8;39.33
33913;BME280;20200;52.084;5.224;2023-04-04T04:10:21;151315.0;;;10.11;38.71
33913;BME280;20200;52.084;5.224;2023-04-04T04:11:57;151274.0;;;9.94;38.92
33913;BME280;20200;52.084;5.224;2023-04-04T04:15:10;151287.0;;;9.99;38.94
33913;BME280;20200;52.084;5.224;2023-04-04T04:16:46;151226.0;;;9.75;39.21
33913;BME280;20200;52.084;5.224;2023-04-04T04:18:22;151235.0;;;9.8;39.19
33913;BME280;20200;52.084;5.224;2023-04-04T04:21:35;151167.0;;;9.52;39.72
33913;BME280;20200;52.084;5.224;2023-04-04T04:23:11;151209.0;;;9.68;39.5
33913;BME280;20200;52.084;5.224;2023-04-04T04:24:47;151167.0;;;9.51;39.96
33913;BME280;20200;52.084;5.224;2023-04-04T04:26:23;151139.0;;;9.4;40.14
33913;BME280;20200;52.084;5.224;2023-04-04T04:29:36;151104.0;;;9.26;40.42
33913;BME280;20200;52.084;5.224;2023-04-04T04:31:13;151175.0;;;9.56;39.78
33913;BME280;20200;52.084;5.224;2023-04-04T04:32:49;151207.0;;;9.67;39.53
33913;BME280;20200;52.084;5.224;2023-04-04T04:36:02;151162.0;;;9.5;39.96
33913;BME280;20200;52.084;5.224;2023-04-04T04:37:39;151134.0;;;9.39;39.99
33913;BME280;20200;52.084;5.224;2023-04-04T04:39:15;151167.0;;;9.52;39.93
33913;BME280;20200;52.084;5.224;2023-04-04T04:42:28;151190.0;;;9.61;39.71
33913;BME280;20200;52.084;5.224;2023-04-04T04:44:04;151141.0;;;9.41;40.17
33913;BME280;20200;52.084;5.224;2023-04-04T04:45:40;151072.0;;;9.14;40.67
33913;BME280;20200;52.084;5.224;2023-04-04T04:47:16;151173.0;;;9.55;39.96
33913;BME280;20200;52.084;5.224;2023-04-04T04:50:28;151133.0;;;9.39;40.29
33913;BME280;20200;52.084;5.224;2023-04-04T04:52:04;151190.0;;;9.61;39.82
33913;BME280;20200;52.084;5.224;2023-04-04T04:53:40;151150.0;;;9.46;39.96
33913;BME280;20200;52.084;5.224;2023-04-04T04:56:53;151153.0;;;9.47;40.1
33913;BME280;20200;52.084;5.224;2023-04-04T04:58:29;151163.0;;;9.5;39.89
33913;BME280;20200;52.084;5.224;2023-04-04T05:00:06;151084.0;;;9.19;40.46
33913;BME280;20200;52.084;5.224;2023-04-04T05:03:18;151181.0;;;9.57;39.64
33913;BME280;20200;52.084;5.224;2023-04-04T05:04:54;151065.0;;;9.11;40.51
33913;BME280;20200;52.084;5.224;2023-04-04T05:06:31;151080.0;;;9.17;40.42
33913;BME280;20200;52.084;5.224;2023-04-04T05:09:43;151001.0;;;8.85;41.22
33913;BME280;20200;52.084;5.224;2023-04-04T05:11:19;150958.0;;;8.68;41.47
33913;BME280;20200;52.084;5.224;2023-04-04T05:12:55;150986.0;;;8.8;41.26
33913;BME280;20200;52.084;5.224;2023-04-04T05:14:32;151023.0;;;8.94;40.96
33913;BME280;20200;52.084;5.224;2023-04-04T05:17:45;151078.0;;;9.16;40.51
33913;BME280;20200;52.084;5.224;2023-04-04T05:19:21;151066.0;;;9.11;40.67
33913;BME280;20200;52.084;5.224;2023-04-04T05:20:57;151074.0;;;9.14;40.53
33913;BME280;20200;52.084;5.224;2023-04-04T05:24:09;151079.0;;;9.17;40.54
33913;BME280;20200;52.084;5.224;2023-04-04T05:25:47;151056.0;;;9.07;40.78
33913;BME280;20200;52.084;5.224;2023-04-04T05:27:24;151040.0;;;9.01;40.92
33913;BME280;20200;52.084;5.224;2023-04-04T05:30:36;151034.0;;;8.98;40.89
33913;BME280;20200;52.084;5.224;2023-04-04T05:32:12;151064.0;;;9.11;40.72
33913;BME280;20200;52.084;5.224;2023-04-04T05:33:48;151015.0;;;8.91;41.07
33913;BME280;20200;52.084;5.224;2023-04-04T05:35:24;151007.0;;;8.89;40.96
33913;BME280;20200;52.084;5.224;2023-04-04T05:38:36;151009.0;;;8.89;41.36
33913;BME280;20200;52.084;5.224;2023-04-04T05:40:13;151082.0;;;9.18;40.75
33913;BME280;20200;52.084;5.224;2023-04-04T05:41:49;151002.0;;;8.86;41.17
33913;BME280;20200;52.084;5.224;2023-04-04T05:45:00;151053.0;;;9.06;40.96
33913;BME280;20200;52.084;5.224;2023-04-04T05:46:37;151005.0;;;8.88;41.39
33913;BME280;20200;52.084;5.224;2023-04-04T05:48:14;151029.0;;;8.98;41.28
33913;BME280;20200;52.084;5.224;2023-04-04T05:51:26;151056.0;;;9.07;41.23
33913;BME280;20200;52.084;5.224;2023-04-04T05:53:02;151104.0;;;9.26;40.92
33913;BME280;20200;52.084;5.224;2023-04-04T05:54:38;151118.0;;;9.32;40.82
33913;BME280;20200;52.084;5.224;2023-04-04T05:57:50;151177.0;;;9.56;40.28
33913;BME280;20200;52.084;5.224;2023-04-04T05:59:26;151167.0;;;9.51;40.03
33913;BME280;20200;52.084;5.224;2023-04-04T06:01:05;151199.0;;;9.64;39.92
33913;BME280;20200;52.084;5.224;2023-04-04T06:02:42;151210.0;;;9.69;40.04
33913;BME280;20200;52.084;5.224;2023-04-04T06:05:54;151182.0;;;9.58;40.17
33913;BME280;20200;52.084;5.224;2023-04-04T06:07:30;151102.0;;;9.26;40.98
33913;BME280;20200;52.084;5.224;2023-04-04T06:09:06;151122.0;;;9.34;41.12
33913;BME280;20200;52.084;5.224;2023-04-04T06:12:19;151169.0;;;9.52;40.79
33913;BME280;20200;52.084;5.224;2023-04-04T06:13:55;151165.0;;;9.51;40.9
33913;BME280;20200;52.084;5.224;2023-04-04T06:15:31;151193.0;;;9.63;40.36
33913;BME280;20200;52.084;5.224;2023-04-04T06:18:44;151290.0;;;10.01;39.67
33913;BME280;20200;52.084;5.224;2023-04-04T06:20:20;151332.0;;;10.17;39.25
33913;BME280;20200;52.084;5.224;2023-04-04T06:21:57;151271.0;;;9.93;39.75
33913;BME280;20200;52.084;5.224;2023-04-04T06:23:33;151255.0;;;9.88;39.9
33913;BME280;20200;52.084;5.224;2023-04-04T06:26:45;151208.0;;;9.68;40.56
33913;BME280;20200;52.084;5.224;2023-04-04T06:28:21;151251.0;;;9.85;40.42
33913;BME280;20200;52.084;5.224;2023-04-04T06:29:57;151260.0;;;9.89;40.17
33913;BME280;20200;52.084;5.224;2023-04-04T06:33:10;151267.0;;;9.92;40.12
33913;BME280;20200;52.084;5.224;2023-04-04T06:34:46;151332.0;;;10.18;39.79
33913;BME280;20200;52.084;5.224;2023-04-04T06:36:22;151250.0;;;9.85;40.07
33913;BME280;20200;52.084;5.224;2023-04-04T06:39:34;151248.0;;;9.84;40.32
33913;BME280;20200;52.084;5.224;2023-04-04T06:41:10;151316.0;;;10.11;39.79
33913;BME280;20200;52.084;5.224;2023-04-04T06:42:47;151424.0;;;10.54;39.17
33913;BME280;20200;52.084;5.224;2023-04-04T06:44:23;151454.0;;;10.66;38.93
33913;BME280;20200;52.084;5.224;2023-04-04T06:47:36;151445.0;;;10.63;38.92
33913;BME280;20200;52.084;5.224;2023-04-04T06:49:12;151525.0;;;10.94;38.56
33913;BME280;20200;52.084;5.224;2023-04-04T06:50:48;151508.0;;;10.88;38.67
33913;BME280;20200;52.084;5.224;2023-04-04T06:54:01;151563.0;;;11.09;38.39
33913;BME280;20200;52.084;5.224;2023-04-04T06:55:37;151519.0;;;10.92;38.32
33913;BME280;20200;52.084;5.224;2023-04-04T06:57:13;151572.0;;;11.13;38.03
33913;BME280;20200;52.084;5.224;2023-04-04T07:00:25;151531.0;;;10.97;38.12
33913;BME280;20200;52.084;5.224;2023-04-04T07:02:01;151563.0;;;11.09;37.82
33913;BME280;20200;52.084;5.224;2023-04-04T07:03:37;151695.0;;;11.62;37.12
33913;BME280;20200;52.084;5.224;2023-04-04T07:06:50;151680.0;;;11.56;37.17
33913;BME280;20200;52.084;5.224;2023-04-04T07:08:26;151658.0;;;11.48;37.14
33913;BME280;20200;52.084;5.224;2023-04-04T07:10:05;151638.0;;;11.39;36.97
33913;BME280;20200;52.084;5.224;2023-04-04T07:11:41;151632.0;;;11.37;37.28
33913;BME280;20200;52.084;5.224;2023-04-04T07:14:53;151764.0;;;11.9;36.29
33913;BME280;20200;52.084;5.224;2023-04-04T07:16:30;151732.0;;;11.77;36.35
33913;BME280;20200;52.084;5.224;2023-04-04T07:18:06;151700.0;;;11.64;36.33
33913;BME280;20200;52.084;5.224;2023-04-04T07:21:18;151874.0;;;12.34;35.64
33913;BME280;20200;52.084;5.224;2023-04-04T07:22:54;151862.0;;;12.29;35.65
33913;BME280;20200;52.084;5.224;2023-04-04T07:24:30;151897.0;;;12.43;35.6
33913;BME280;20200;52.084;5.224;2023-04-04T07:27:43;151912.0;;;12.49;35.29
33913;BME280;20200;52.084;5.224;2023-04-04T07:29:19;151968.0;;;12.71;35.15
33913;BME280;20200;52.084;5.224;2023-04-04T07:30:58;151973.0;;;12.73;34.99
33913;BME280;20200;52.084;5.224;2023-04-04T07:32:34;151985.0;;;12.78;34.64
33913;BME280;20200;52.084;5.224;2023-04-04T07:35:46;151999.0;;;12.83;34.19
33913;BME280;20200;52.084;5.224;2023-04-04T07:37:22;152078.0;;;13.15;34.07
33913;BME280;20200;52.084;5.224;2023-04-04T07:38:59;152070.0;;;13.11;33.75
33913;BME280;20200;52.084;5.224;2023-04-04T07:42:11;152047.0;;;13.02;33.32
33913;BME280;20200;52.084;5.224;2023-04-04T07:43:47;152066.0;;;13.1;33.49
33913;BME280;20200;52.084;5.224;2023-04-04T07:45:22;152074.0;;;13.13;33.37
33913;BME280;20200;52.084;5.224;2023-04-04T07:48:34;152188.0;;;13.59;32.74
33913;BME280;20200;52.084;5.224;2023-04-04T07:50:11;152217.0;;;13.7;32.61
33913;BME280;20200;52.084;5.224;2023-04-04T07:51:47;152175.0;;;13.53;32.57
33913;BME280;20200;52.084;5.224;2023-04-04T07:54:58;152257.0;;;13.86;32.39
33913;BME280;20200;52.084;5.224;2023-04-04T07:56:35;152238.0;;;13.78;32.01
33913;BME280;20200;52.084;5.224;2023-04-04T07:58:10;152230.0;;;13.75;32.03
33913;BME280;20200;52.084;5.224;2023-04-04T07:59:46;152290.0;;;13.99;31.85
33913;BME280;20200;52.084;5.224;2023-04-04T08:02:58;152304.0;;;14.05;31.07
33913;BME280;20200;52.084;5.224;2023-04-04T08:04:34;152390.0;;;14.39;30.28
33913;BME280;20200;52.084;5.224;2023-04-04T08:06:11;152426.0;;;14.53;30.01
33913;BME280;20200;52.084;5.224;2023-04-04T08:09:24;152453.0;;;14.64;29.89
33913;BME280;20200;52.084;5.224;2023-04-04T08:11:00;152458.0;;;14.66;29.0
33913;BME280;20200;52.084;5.224;2023-04-04T08:12:37;152282.0;;;13.96;28.18
33913;BME280;20200;52.084;5.224;2023-04-04T08:15:49;152447.0;;;14.62;27.84
33913;BME280;20200;52.084;5.224;2023-04-04T08:17:26;152320.0;;;14.11;27.51
33913;BME280;20200;52.084;5.224;2023-04-04T08:19:02;152508.0;;;14.86;26.67
33913;BME280;20200;52.084;5.224;2023-04-04T08:20:38;152524.0;;;14.92;26.67
33913;BME280;20200;52.084;5.224;2023-04-04T08:23:50;152514.0;;;14.88;26.78
33913;BME280;20200;52.084;5.224;2023-04-04T08:25:26;152498.0;;;14.82;27.2
33913;BME280;20200;52.084;5.224;2023-04-04T08:27:02;152595.0;;;15.2;27.03
33913;BME280;20200;52.084;5.224;2023-04-04T08:30:13;152553.0;;;15.04;27.59
33913;BME280;20200;52.084;5.224;2023-04-04T08:31:50;152492.0;;;14.79;27.47
33913;BME280;20200;52.084;5.224;2023-04-04T08:33:26;152664.0;;;15.48;27.17
33913;BME280;20200;52.084;5.224;2023-04-04T08:36:38;152684.0;;;15.56;26.69
33913;BME280;20200;52.084;5.224;2023-04-04T08:38:14;152739.0;;;15.78;26.0
33913;BME280;20200;52.084;5.224;2023-04-04T08:39:50;152675.0;;;15.52;26.87
33913;BME280;20200;52.084;5.224;2023-04-04T08:43:03;152632.0;;;15.35;26.26
33913;BME280;20200;52.084;5.224;2023-04-04T08:44:40;152708.0;;;15.65;25.84
33913;BME280;20200;52.084;5.224;2023-04-04T08:46:20;152706.0;;;15.64;25.97
33913;BME280;20200;52.084;5.224;2023-04-04T08:47:57;152675.0;;;15.52;26.54
33913;BME280;20200;52.084;5.224;2023-04-04T08:51:14;152720.0;;;15.7;26.16
33913;BME280;20200;52.084;5.224;2023-04-04T08:52:52;152834.0;;;16.16;25.13
33913;BME280;20200;52.084;5.224;2023-04-04T08:54:30;152880.0;;;16.34;25.22
33913;BME280;20200;52.084;5.224;2023-04-04T08:57:42;152902.0;;;16.43;25.5
33913;BME280;20200;52.084;5.224;2023-04-04T08:59:19;152920.0;;;16.5;25.06
33913;BME280;20200;52.084;5.224;2023-04-04T09:00:55;152955.0;;;16.63;25.48
33913;BME280;20200;52.084;5.224;2023-04-04T09:02:35;152791.0;;;15.98;25.15
33913;BME280;20200;52.084;5.224;2023-04-04T09:05:52;152789.0;;;15.97;25.31
33913;BME280;20200;52.084;5.224;2023-04-04T09:07:29;152734.0;;;15.76;25.71
33913;BME280;20200;52.084;5.224;2023-04-04T09:09:06;152766.0;;;15.89;25.3
33913;BME280;20200;52.084;5.224;2023-04-04T09:12:21;152851.0;;;16.22;24.67
33913;BME280;20200;52.084;5.224;2023-04-04T09:13:57;152806.0;;;16.04;24.97
33913;BME280;20200;52.084;5.224;2023-04-04T09:15:36;152877.0;;;16.32;24.27
33913;BME280;20200;52.084;5.224;2023-04-04T09:17:13;152883.0;;;16.36;25.03
33913;BME280;20200;52.084;5.224;2023-04-04T09:20:37;152822.0;;;16.11;24.72
33913;BME280;20200;52.084;5.224;2023-04-04T09:22:14;152859.0;;;16.25;24.66
33913;BME280;20200;52.084;5.224;2023-04-04T09:23:57;152906.0;;;16.45;24.29
33913;BME280;20200;52.084;5.224;2023-04-04T09:25:34;152923.0;;;16.52;24.33
33913;BME280;20200;52.084;5.224;2023-04-04T09:28:51;152950.0;;;16.62;24.69
33913;BME280;20200;52.084;5.224;2023-04-04T09:30:27;153031.0;;;16.95;24.19
33913;BME280;20200;52.084;5.224;2023-04-04T09:32:07;152975.0;;;16.72;24.41
33913;BME280;20200;52.084;5.224;2023-04-04T09:35:18;153093.0;;;17.18;24.4
33913;BME280;20200;52.084;5.224;2023-04-04T09:36:56;153053.0;;;17.02;23.77
33913;BME280;20200;52.084;5.224;2023-04-04T09:38:35;153156.0;;;17.43;23.96
33913;BME280;20200;52.084;5.224;2023-04-04T09:40:14;152931.0;;;16.54;24.61
33913;BME280;20200;52.084;5.224;2023-04-04T09:43:29;153078.0;;;17.12;24.75
33913;BME280;20200;52.084;5.224;2023-04-04T09:45:06;153051.0;;;17.02;24.47
33913;BME280;20200;52.084;5.224;2023-04-04T09:46:43;153089.0;;;17.18;24.3
33913;BME280;20200;52.084;5.224;2023-04-04T09:50:06;153023.0;;;16.9;24.18
33913;BME280;20200;52.084;5.224;2023-04-04T09:51:47;153177.0;;;17.52;24.17
33913;BME280;20200;52.084;5.224;2023-04-04T09:53:24;153172.0;;;17.5;23.52
33913;BME280;20200;52.084;5.224;2023-04-04T09:55:01;153209.0;;;17.64;23.06
33913;BME280;20200;52.084;5.224;2023-04-04T09:58:16;153114.0;;;17.27;23.9
33913;BME280;20200;52.084;5.224;2023-04-04T09:59:56;153164.0;;;17.46;23.69
33913;BME280;20200;52.084;5.224;2023-04-04T10:01:33;153084.0;;;17.14;23.84
33913;BME280;20200;52.084;5.224;2023-04-04T10:03:10;153012.0;;;16.86;23.93
33913;BME280;20200;52.084;5.224;2023-04-04T10:06:24;153073.0;;;17.11;23.92
33913;BME280;20200;52.084;5.224;2023-04-04T10:08:12;153154.0;;;17.43;23.15
33913;BME280;20200;52.084;5.224;2023-04-04T10:09:50;153209.0;;;17.64;23.91
33913;BME280;20200;52.084;5.224;2023-04-04T10:13:05;153185.0;;;17.55;23.63
33913;BME280;20200;52.084;5.224;2023-04-04T10:14:41;152895.0;;;16.4;24.55
33913;BME280;20200;52.084;5.224;2023-04-04T10:16:17;153127.0;;;17.32;24.02
33913;BME280;20200;52.084;5.224;2023-04-04T10:17:53;153275.0;;;17.91;23.18
33913;BME280;20200;52.084;5.224;2023-04-04T10:21:09;153286.0;;;17.95;23.25
33913;BME280;20200;52.084;5.224;2023-04-04T10:22:45;153129.0;;;17.34;23.44
33913;BME280;20200;52.084;5.224;2023-04-04T10:24:21;153252.0;;;17.81;23.5
33913;BME280;20200;52.084;5.224;2023-04-04T10:27:33;153175.0;;;17.52;23.79
33913;BME280;20200;52.084;5.224;2023-04-04T10:29:10;153214.0;;;17.66;23.46
33913;BME280;20200;52.084;5.224;2023-04-04T10:30:48;153279.0;;;17.93;23.6
33913;BME280;20200;52.084;5.224;2023-04-04T10:32:32;153329.0;;;18.12;23.78
33913;BME280;20200;52.084;5.224;2023-04-04T10:36:07;153345.0;;;18.18;23.35
33913;BME280;20200;52.084;5.224;2023-04-04T10:37:51;153402.0;;;18.41;23.33
33913;BME280;20200;52.084;5.224;2023-04-04T10:39:32;153393.0;;;18.37;22.74
33913;BME280;20200;52.084;5.224;2023-04-04T10:41:13;153469.0;;;18.68;22.72
33913;BME280;20200;52.084;5.224;2023-04-04T10:44:28;153459.0;;;18.64;23.08
33913;BME280;20200;52.084;5.224;2023-04-04T10:46:08;153536.0;;;18.95;22.55
33913;BME280;20200;52.084;5.224;2023-04-04T10:47:49;153561.0;;;19.04;22.85
33913;BME280;20200;52.084;5.224;2023-04-04T10:49:26;153585.0;;;19.13;22.22
33913;BME280;20200;52.084;5.224;2023-04-04T10:52:43;153588.0;;;19.16;22.78
33913;BME280;20200;52.084;5.224;2023-04-04T10:54:20;153668.0;;;19.46;21.99
33913;BME280;20200;52.084;5.224;2023-04-04T10:55:55;153574.0;;;19.09;22.56
33913;BME280;20200;52.084;5.224;2023-04-04T10:57:36;153705.0;;;19.61;22.07
33913;BME280;20200;52.084;5.224;2023-04-04T11:00:51;153521.0;;;18.88;21.46
33913;BME280;20200;52.084;5.224;2023-04-04T11:02:47;153797.0;;;19.97;21.26
33913;BME280;20200;52.084;5.224;2023-04-04T11:04:31;153325.0;;;18.11;22.3
33913;BME280;20200;52.084;5.224;2023-04-04T11:06:13;153449.0;;;18.61;22.16
33913;BME280;20200;52.084;5.224;2023-04-04T11:09:48;153706.0;;;19.61;21.72
33913;BME280;20200;52.084;5.224;2023-04-04T11:11:27;153678.0;;;19.5;22.07